Time;durP1;ratioP1;P1;durP2;ratioP2;P2;SDS_P1;SDS_P2;PMS_P1;PMS_P2;Temp;Humidity;BMP_temperature;BMP_pressure;BME280_temperature;BME280_humidity;BME280_pressure;Samples;Min_cycle;Max_cycle;Signal;HPM_P1;HPM_P2
2022/04/08 00:00:48;;;;;;;11.60;2.93;;;5.20;88.70;;;;;;4844987;29;20209;-85
2022/04/08 00:03:13;;;;;;;17.20;2.60;;;5.20;88.70;;;;;;4828589;29;20185;-85
2022/04/08 00:05:39;;;;;;;5.93;2.20;;;5.10;88.60;;;;;;4844102;29;20186;-86
2022/04/08 00:08:04;;;;;;;12.07;2.60;;;5.10;88.60;;;;;;4844438;29;20259;-85
2022/04/08 00:10:30;;;;;;;8.37;2.73;;;5.10;88.60;;;;;;4843648;29;20194;-85
2022/04/08 00:12:57;;;;;;;11.33;2.50;;;5.10;88.60;;;;;;4846794;29;20639;-85
2022/04/08 00:15:23;;;;;;;13.07;2.97;;;5.10;88.70;;;;;;4843786;29;20284;-85
2022/04/08 00:17:48;;;;;;;14.47;3.77;;;5.10;88.80;;;;;;4844995;29;20657;-86
2022/04/08 00:20:14;;;;;;;15.60;5.00;;;5.10;88.90;;;;;;4829384;29;20182;-86
2022/04/08 00:22:40;;;;;;;10.90;3.50;;;5.10;89.00;;;;;;4845568;29;20204;-85
2022/04/08 00:25:07;;;;;;;9.07;2.93;;;5.10;88.70;;;;;;4844022;29;20193;-86
2022/04/08 00:27:33;;;;;;;11.87;2.70;;;5.10;88.40;;;;;;4845819;29;20185;-86
2022/04/08 00:29:59;;;;;;;14.37;2.77;;;5.10;88.20;;;;;;4847850;29;20184;-86
2022/04/08 00:32:26;;;;;;;8.60;2.63;;;5.00;88.30;;;;;;4849202;29;20214;-85
2022/04/08 00:34:52;;;;;;;12.03;3.27;;;5.10;88.20;;;;;;4847807;29;20574;-85
2022/04/08 00:37:18;;;;;;;9.90;3.07;;;5.10;88.20;;;;;;4847291;29;20211;-86
2022/04/08 00:39:43;;;;;;;7.50;2.07;;;5.10;88.20;;;;;;4848973;29;20199;-86
2022/04/08 00:42:12;;;;;;;9.97;2.80;;;5.10;87.80;;;;;;4845076;29;20185;-85
2022/04/08 00:44:38;;;;;;;9.07;2.63;;;5.10;88.00;;;;;;4844522;29;20186;-86
2022/04/08 00:47:04;;;;;;;12.43;2.93;;;5.00;88.10;;;;;;4844127;29;20268;-85
2022/04/08 00:49:31;;;;;;;9.13;2.97;;;5.00;88.10;;;;;;4843504;29;20223;-85
2022/04/08 00:51:58;;;;;;;12.50;2.93;;;5.00;88.20;;;;;;4844600;29;20194;-86
2022/04/08 00:54:24;;;;;;;11.63;2.70;;;5.00;88.40;;;;;;4842786;29;20188;-86
2022/04/08 00:56:50;;;;;;;7.30;2.40;;;5.00;88.40;;;;;;4843055;29;20215;-85
2022/04/08 00:59:16;;;;;;;10.90;3.20;;;5.00;88.30;;;;;;4843511;29;20561;-85
2022/04/08 01:01:43;;;;;;;14.17;3.00;;;5.00;88.20;;;;;;4843599;29;20190;-85
2022/04/08 01:04:08;;;;;;;17.00;3.43;;;5.10;88.00;;;;;;4843329;29;20248;-85
2022/04/08 01:06:35;;;;;;;5.83;2.30;;;5.10;88.10;;;;;;4843164;29;20181;-85
2022/04/08 01:09:01;;;;;;;14.47;2.90;;;5.10;88.10;;;;;;4842572;29;20603;-85
2022/04/08 01:11:26;;;;;;;11.40;2.83;;;5.10;88.00;;;;;;4842970;29;20188;-85
2022/04/08 01:13:52;;;;;;;11.30;2.57;;;5.10;87.80;;;;;;4842800;29;20181;-85
2022/04/08 01:16:19;;;;;;;9.67;2.97;;;5.10;87.50;;;;;;4844142;29;20189;-85
2022/04/08 01:18:45;;;;;;;6.73;2.53;;;5.00;87.20;;;;;;4844140;29;20713;-86
2022/04/08 01:21:10;;;;;;;11.30;2.63;;;5.00;87.10;;;;;;4842822;29;20268;-86
2022/04/08 01:23:36;;;;;;;12.23;2.30;;;5.10;87.10;;;;;;4843778;29;20648;-86
2022/04/08 01:26:06;;;;;;;3.67;2.03;;;5.00;87.50;;;;;;4843593;29;20183;-86
2022/04/08 01:28:33;;;;;;;9.83;2.50;;;4.90;86.70;;;;;;4842864;29;20211;-85
2022/04/08 01:30:59;;;;;;;6.03;2.20;;;4.80;87.40;;;;;;4842693;29;20185;-85
2022/04/08 01:33:25;;;;;;;5.40;2.43;;;4.80;87.70;;;;;;4842631;29;20278;-86
2022/04/08 01:35:50;;;;;;;11.40;3.70;;;4.90;87.80;;;;;;4843151;29;20282;-85
2022/04/08 01:38:16;;;;;;;8.07;2.13;;;4.80;87.80;;;;;;4843427;29;20300;-85
2022/04/08 01:40:41;;;;;;;8.57;2.73;;;4.80;87.90;;;;;;4843300;29;20179;-86
2022/04/08 01:43:07;;;;;;;11.07;2.57;;;4.80;88.00;;;;;;4829186;29;20648;-85
2022/04/08 01:45:33;;;;;;;6.53;2.27;;;4.70;88.20;;;;;;4843462;29;20184;-86
2022/04/08 01:47:58;;;;;;;27.53;3.13;;;4.70;88.40;;;;;;4843414;29;20707;-85
2022/04/08 01:50:24;;;;;;;8.47;2.60;;;4.80;88.40;;;;;;4828436;29;20184;-85
2022/04/08 01:52:49;;;;;;;14.80;3.30;;;4.80;88.50;;;;;;4829654;29;20245;-86
2022/04/08 01:55:15;;;;;;;15.13;3.00;;;4.70;88.50;;;;;;4843465;29;20250;-85
2022/04/08 01:57:41;;;;;;;17.07;3.10;;;4.80;88.60;;;;;;4844539;29;20643;-85
2022/04/08 02:00:08;;;;;;;8.87;2.13;;;4.80;88.40;;;;;;4843764;29;20675;-85
2022/04/08 02:02:35;;;;;;;13.57;2.57;;;4.80;88.60;;;;;;4844790;29;20218;-85
2022/04/08 02:05:00;;;;;;;13.53;2.80;;;4.80;88.60;;;;;;4842069;29;20716;-85
2022/04/08 02:07:26;;;;;;;18.17;3.50;;;4.80;88.60;;;;;;4826810;29;20184;-85
2022/04/08 02:09:52;;;;;;;8.00;2.40;;;4.80;88.60;;;;;;4843313;29;20180;-85
2022/04/08 02:12:18;;;;;;;12.33;2.70;;;4.80;88.40;;;;;;4842284;29;20189;-85
2022/04/08 02:14:44;;;;;;;5.47;2.43;;;4.90;88.50;;;;;;4845458;29;20185;-85
2022/04/08 02:17:09;;;;;;;15.37;2.80;;;4.80;88.50;;;;;;4845586;29;20626;-85
2022/04/08 02:19:35;;;;;;;16.37;3.20;;;4.80;88.00;;;;;;4845701;29;20383;-85
2022/04/08 02:22:02;;;;;;;12.43;2.20;;;4.70;87.70;;;;;;4845648;29;20254;-85
2022/04/08 02:24:28;;;;;;;13.93;3.20;;;4.70;86.70;;;;;;4829785;29;20187;-85
2022/04/08 02:26:53;;;;;;;9.00;2.73;;;4.80;86.70;;;;;;4846948;29;20191;-85
2022/04/08 02:29:19;;;;;;;11.83;2.67;;;4.80;86.90;;;;;;4846195;29;20230;-85
2022/04/08 02:31:45;;;;;;;17.27;3.97;;;4.80;86.90;;;;;;4845202;29;20568;-85
2022/04/08 02:34:10;;;;;;;9.53;2.57;;;4.80;87.00;;;;;;4846375;29;20187;-86
2022/04/08 02:36:36;;;;;;;15.83;2.83;;;4.80;87.20;;;;;;4844955;29;20194;-86
2022/04/08 02:39:01;;;;;;;11.00;3.17;;;4.80;87.10;;;;;;4845383;29;20204;-85
2022/04/08 02:41:27;;;;;;;15.03;2.70;;;4.80;84.70;;;;;;4846312;29;20183;-85
2022/04/08 02:43:52;;;;;;;15.00;2.80;;;4.90;85.10;;;;;;4844924;29;20183;-85
2022/04/08 02:46:18;;;;;;;19.70;3.10;;;4.80;85.80;;;;;;4844745;29;20597;-85
2022/04/08 02:48:43;;;;;;;12.60;3.73;;;4.80;86.20;;;;;;4844469;29;20766;-85
2022/04/08 02:51:09;;;;;;;22.37;3.47;;;4.80;86.50;;;;;;4844819;29;20557;-85
2022/04/08 02:53:34;;;;;;;20.43;2.90;;;4.80;86.80;;;;;;4844227;29;20192;-85
2022/04/08 02:56:00;;;;;;;12.50;2.50;;;4.80;87.00;;;;;;4844516;29;20175;-85
2022/04/08 02:58:29;;;;;;;13.17;3.03;;;4.80;85.60;;;;;;4844504;29;20281;-84
2022/04/08 03:00:59;;;;;;;11.60;3.30;;;4.90;82.70;;;;;;4844706;29;20188;-85
2022/04/08 03:03:28;;;;;;;19.73;3.33;;;5.00;81.10;;;;;;4844554;29;20623;-85
2022/04/08 03:05:54;;;;;;;13.70;2.80;;;4.80;82.10;;;;;;4844236;29;20244;-85
2022/04/08 03:08:21;;;;;;;19.07;2.80;;;4.90;81.30;;;;;;4844179;29;20210;-85
2022/04/08 03:10:46;;;;;;;22.50;3.87;;;4.90;81.20;;;;;;4844405;29;20192;-85
2022/04/08 03:13:12;;;;;;;16.87;2.83;;;5.00;79.90;;;;;;4845701;29;20188;-85
2022/04/08 03:15:39;;;;;;;19.47;3.53;;;5.00;79.60;;;;;;4844188;29;20185;-85
2022/04/08 03:18:05;;;;;;;18.93;4.30;;;4.90;79.80;;;;;;4844100;29;20215;-85
2022/04/08 03:20:30;;;;;;;21.20;3.23;;;4.90;79.90;;;;;;4845086;29;20338;-84
2022/04/08 03:22:56;;;;;;;28.90;7.53;;;4.90;79.90;;;;;;4844007;29;20225;-85
2022/04/08 03:25:21;;;;;;;13.90;3.13;;;4.90;80.20;;;;;;4844025;29;20232;-85
2022/04/08 03:27:47;;;;;;;19.90;4.03;;;4.90;79.90;;;;;;4845012;29;20286;-85
2022/04/08 03:30:13;;;;;;;19.10;3.30;;;4.90;79.80;;;;;;4844026;29;20193;-85
2022/04/08 03:32:38;;;;;;;19.40;3.87;;;4.90;80.10;;;;;;4844197;29;20690;-85
2022/04/08 03:35:04;;;;;;;26.20;4.50;;;4.80;80.50;;;;;;4843613;29;20679;-85
2022/04/08 03:37:30;;;;;;;26.17;4.33;;;4.90;80.10;;;;;;4844966;29;20299;-85
2022/04/08 03:39:56;;;;;;;24.53;4.43;;;4.80;80.50;;;;;;4844764;29;20267;-84
2022/04/08 03:42:22;;;;;;;22.27;3.73;;;4.90;79.90;;;;;;4845104;29;20238;-85
2022/04/08 03:44:49;;;;;;;22.80;3.90;;;4.80;80.70;;;;;;4844957;29;20766;-85
2022/04/08 03:47:15;;;;;;;25.17;4.63;;;4.80;80.60;;;;;;4844659;29;20187;-85
2022/04/08 03:49:40;;;;;;;18.40;3.70;;;4.80;80.50;;;;;;4845385;29;20583;-85
2022/04/08 03:52:08;;;;;;;11.10;3.03;;;4.90;80.20;;;;;;4843750;29;20233;-85
2022/04/08 03:54:34;;;;;;;26.33;3.83;;;4.90;79.70;;;;;;4843690;29;20603;-85
2022/04/08 03:57:00;;;;;;;18.77;3.57;;;4.90;80.50;;;;;;4844681;29;20205;-85
2022/04/08 03:59:25;;;;;;;31.37;4.30;;;4.80;80.80;;;;;;4843439;29;20220;-85
2022/04/08 04:01:51;;;;;;;22.83;4.33;;;4.80;81.50;;;;;;4843262;29;20177;-85
2022/04/08 04:04:16;;;;;;;18.33;4.23;;;4.80;81.10;;;;;;4843304;29;20272;-85
2022/04/08 04:06:42;;;;;;;21.07;3.80;;;4.80;81.90;;;;;;4843234;29;20263;-85
2022/04/08 04:09:08;;;;;;;22.87;3.73;;;4.80;81.80;;;;;;4843310;29;20207;-85
2022/04/08 04:11:33;;;;;;;27.33;4.77;;;4.90;80.60;;;;;;4843238;29;20180;-84
2022/04/08 04:13:59;;;;;;;19.73;4.07;;;4.80;81.30;;;;;;4844460;29;20178;-85
2022/04/08 04:16:28;;;;;;;20.67;3.80;;;4.80;81.20;;;;;;4842975;29;20554;-85
2022/04/08 04:18:54;;;;;;;28.37;4.37;;;4.70;81.80;;;;;;4844125;29;20759;-85
2022/04/08 04:21:19;;;;;;;34.53;4.43;;;4.70;81.80;;;;;;4842958;29;20188;-85
2022/04/08 04:23:45;;;;;;;27.73;4.47;;;4.80;82.30;;;;;;4842713;29;20177;-85
2022/04/08 04:26:11;;;;;;;26.87;4.10;;;4.70;82.30;;;;;;4842926;29;20557;-85
2022/04/08 04:28:36;;;;;;;25.40;4.50;;;4.60;82.30;;;;;;4828543;29;20290;-85
2022/04/08 04:31:04;;;;;;;25.93;4.57;;;4.60;82.10;;;;;;4842905;29;20181;-85
2022/04/08 04:33:31;;;;;;;18.37;3.57;;;4.60;82.10;;;;;;4842872;29;20185;-85
2022/04/08 04:35:56;;;;;;;27.20;4.50;;;4.60;81.40;;;;;;4842408;29;20192;-85
2022/04/08 04:38:22;;;;;;;29.73;4.50;;;4.60;81.00;;;;;;4843742;29;20213;-85
2022/04/08 04:40:48;;;;;;;22.93;4.30;;;4.60;79.90;;;;;;4843865;29;20261;-84
2022/04/08 04:43:14;;;;;;;24.03;4.93;;;4.60;79.60;;;;;;4843757;29;20264;-84
2022/04/08 04:45:40;;;;;;;20.47;3.57;;;4.60;79.50;;;;;;4843177;29;20698;-85
2022/04/08 04:48:06;;;;;;;22.53;3.57;;;4.60;79.20;;;;;;4843762;29;20224;-84
2022/04/08 04:50:31;;;;;;;15.07;3.47;;;4.60;79.30;;;;;;4842426;29;20189;-85
2022/04/08 04:52:57;;;;;;;12.53;3.40;;;4.60;78.90;;;;;;4842734;29;20196;-84
2022/04/08 04:55:23;;;;;;;22.93;4.23;;;4.60;78.70;;;;;;4842550;29;20201;-84
2022/04/08 04:57:48;;;;;;;13.63;2.93;;;4.60;79.00;;;;;;4842403;29;20299;-85
2022/04/08 05:00:16;;;;;;;12.53;3.30;;;4.60;78.70;;;;;;4842742;29;20179;-84
2022/04/08 05:02:42;;;;;;;14.90;3.43;;;4.60;78.30;;;;;;4842783;29;20573;-84
2022/04/08 05:05:08;;;;;;;17.47;4.07;;;4.60;78.80;;;;;;4842762;29;20192;-84
2022/04/08 05:07:34;;;;;;;10.13;3.20;;;4.60;78.50;;;;;;4842522;29;20671;-84
2022/04/08 05:09:59;;;;;;;13.37;3.50;;;4.70;78.20;;;;;;4843659;29;20188;-84
2022/04/08 05:12:25;;;;;;;22.07;3.63;;;4.70;77.80;;;;;;4843411;29;20194;-84
2022/04/08 05:14:50;;;;;;;8.53;2.27;;;4.60;78.00;;;;;;4842406;29;20192;-84
2022/04/08 05:17:16;;;;;;;22.03;3.40;;;4.60;78.30;;;;;;4843467;29;20212;-84
2022/04/08 05:19:41;;;;;;;23.13;4.43;;;4.60;78.90;;;;;;4842053;29;20686;-84
2022/04/08 05:22:07;;;;;;;16.40;3.97;;;4.50;79.30;;;;;;4842202;29;20283;-84
2022/04/08 05:24:32;;;;;;;16.63;2.90;;;4.40;80.10;;;;;;4843176;29;20214;-84
2022/04/08 05:26:58;;;;;;;20.30;4.33;;;4.50;79.80;;;;;;4843534;29;20229;-84
2022/04/08 05:29:24;;;;;;;15.07;3.70;;;4.40;79.30;;;;;;4841914;29;20271;-85
2022/04/08 05:31:49;;;;;;;22.17;3.77;;;4.40;80.50;;;;;;4843308;29;20244;-85
2022/04/08 05:34:15;;;;;;;16.47;3.10;;;4.30;82.80;;;;;;4843042;29;20183;-85
2022/04/08 05:36:40;;;;;;;25.33;4.30;;;4.10;84.30;;;;;;4841783;29;20273;-85
2022/04/08 05:39:06;;;;;;;20.00;4.10;;;4.10;84.50;;;;;;4841974;29;20209;-85
2022/04/08 05:41:31;;;;;;;20.90;3.90;;;4.00;84.80;;;;;;4843059;29;20215;-85
2022/04/08 05:43:57;;;;;;;15.83;5.50;;;4.00;85.10;;;;;;4843089;29;20207;-85
2022/04/08 05:46:22;;;;;;;24.43;3.63;;;3.90;85.20;;;;;;4826790;29;20184;-85
2022/04/08 05:48:48;;;;;;;21.87;3.57;;;3.90;85.10;;;;;;4844352;29;20223;-84
2022/04/08 05:51:13;;;;;;;11.70;3.13;;;3.90;84.90;;;;;;4847207;29;20677;-84
2022/04/08 05:53:39;;;;;;;12.83;3.03;;;4.00;84.10;;;;;;4846767;29;20194;-84
2022/04/08 05:56:05;;;;;;;20.07;4.00;;;4.10;84.50;;;;;;4846661;29;20718;-85
2022/04/08 05:58:31;;;;;;;11.00;3.37;;;4.20;84.60;;;;;;4846564;29;20214;-85
2022/04/08 06:00:57;;;;;;;26.87;4.77;;;4.30;84.30;;;;;;4845670;29;20191;-85
2022/04/08 06:03:22;;;;;;;14.63;3.03;;;4.30;85.20;;;;;;4845479;29;20242;-85
2022/04/08 06:05:48;;;;;;;19.37;3.40;;;4.30;86.20;;;;;;4846815;29;20175;-85
2022/04/08 06:08:13;;;;;;;15.57;3.30;;;4.30;86.90;;;;;;4846964;29;20211;-85
2022/04/08 06:10:39;;;;;;;20.13;4.10;;;4.40;87.00;;;;;;4845363;29;20192;-85
2022/04/08 06:13:05;;;;;;;21.50;4.10;;;4.40;87.00;;;;;;4846540;29;20179;-85
2022/04/08 06:15:31;;;;;;;15.67;3.30;;;4.50;87.40;;;;;;4845183;29;20283;-85
2022/04/08 06:17:57;;;;;;;8.93;2.60;;;4.60;87.00;;;;;;4844941;29;20310;-85
2022/04/08 06:20:24;;;;;;;15.33;4.17;;;4.60;87.30;;;;;;4845206;29;20183;-85
2022/04/08 06:22:50;;;;;;;13.53;3.33;;;4.60;88.00;;;;;;4844872;29;20290;-86
2022/04/08 06:25:21;;;;;;;16.70;3.40;;;4.50;87.80;;;;;;4844813;29;20180;-85
2022/04/08 06:28:04;;;;;;;14.27;3.00;;;4.60;87.80;;;;;;4846124;29;20204;-85
2022/04/08 06:30:33;;;;;;;13.93;3.83;;;4.60;87.60;;;;;;4845060;29;20213;-85
2022/04/08 06:32:58;;;;;;;15.80;3.20;;;4.70;87.70;;;;;;4846129;29;20195;-85
2022/04/08 06:35:24;;;;;;;10.67;2.60;;;4.70;87.10;;;;;;4846074;29;20187;-85
2022/04/08 06:37:49;;;;;;;12.53;3.20;;;4.70;86.70;;;;;;4846149;29;20673;-84
2022/04/08 06:40:15;;;;;;;13.37;2.70;;;4.80;86.50;;;;;;4844786;29;20191;-84
2022/04/08 06:42:40;;;;;;;10.43;3.37;;;4.90;86.80;;;;;;4846176;29;20552;-85
2022/04/08 06:45:07;;;;;;;8.87;3.10;;;5.00;86.40;;;;;;4846666;29;20176;-85
2022/04/08 06:47:33;;;;;;;10.93;3.17;;;5.00;86.60;;;;;;4845049;29;20191;-85
2022/04/08 06:49:59;;;;;;;19.83;2.93;;;5.00;86.40;;;;;;4845353;29;20187;-86
2022/04/08 06:52:24;;;;;;;22.63;3.70;;;5.10;86.90;;;;;;4845030;29;20195;-85
2022/04/08 06:54:50;;;;;;;12.80;3.00;;;5.10;86.30;;;;;;4845282;29;20185;-84
2022/04/08 06:57:15;;;;;;;15.50;2.80;;;5.20;86.60;;;;;;4845280;29;20268;-85
2022/04/08 06:59:42;;;;;;;9.73;2.70;;;5.30;86.20;;;;;;4846040;29;20208;-85
2022/04/08 07:02:09;;;;;;;17.07;4.03;;;5.30;86.10;;;;;;4845060;29;20207;-85
2022/04/08 07:04:35;;;;;;;14.30;3.23;;;5.40;86.20;;;;;;4846152;29;20244;-85
2022/04/08 07:07:04;;;;;;;7.10;2.53;;;5.40;85.80;;;;;;4844818;29;20275;-85
2022/04/08 07:09:32;;;;;;;13.67;3.53;;;5.50;85.70;;;;;;4829489;29;20237;-84
2022/04/08 07:11:58;;;;;;;11.87;2.07;;;5.60;85.90;;;;;;4846514;29;20181;-85
2022/04/08 07:14:23;;;;;;;10.17;2.20;;;5.60;84.80;;;;;;4844563;29;20245;-88
2022/04/08 07:16:49;;;;;;;10.67;3.87;;;5.60;85.50;;;;;;4844375;29;20274;-85
2022/04/08 07:19:14;;;;;;;10.47;2.20;;;5.40;85.00;;;;;;4845825;29;20284;-85
2022/04/08 07:21:40;;;;;;;9.20;2.80;;;5.30;84.90;;;;;;4844740;29;20602;-85
2022/04/08 07:24:06;;;;;;;3.57;1.67;;;5.40;84.30;;;;;;4844317;29;20179;-85
2022/04/08 07:26:31;;;;;;;6.47;2.40;;;5.30;83.40;;;;;;4845575;29;20175;-85
2022/04/08 07:28:57;;;;;;;6.67;1.90;;;5.40;84.30;;;;;;4844566;29;20236;-86
2022/04/08 07:31:23;;;;;;;7.77;2.07;;;5.40;84.30;;;;;;4829347;29;20572;-85
2022/04/08 07:33:48;;;;;;;3.73;2.10;;;5.40;84.80;;;;;;4844442;29;20645;-84
2022/04/08 07:36:14;;;;;;;4.80;2.10;;;5.40;83.60;;;;;;4844518;29;20216;-85
2022/04/08 07:38:40;;;;;;;19.33;2.30;;;5.40;83.90;;;;;;4846101;29;20303;-84
2022/04/08 07:41:05;;;;;;;6.23;2.00;;;5.30;84.30;;;;;;4844200;29;20232;-85
2022/04/08 07:43:31;;;;;;;10.00;2.20;;;5.40;85.60;;;;;;4844071;29;20240;-85
2022/04/08 07:45:56;;;;;;;15.63;2.73;;;5.30;85.00;;;;;;4829058;29;20180;-85
2022/04/08 07:48:22;;;;;;;5.90;2.17;;;5.30;85.60;;;;;;4844745;29;20225;-85
2022/04/08 07:50:48;;;;;;;5.83;2.17;;;5.30;86.10;;;;;;4829137;29;20197;-85
2022/04/08 07:53:13;;;;;;;5.73;2.33;;;5.30;86.40;;;;;;4845410;29;20241;-85
2022/04/08 07:55:39;;;;;;;6.73;2.50;;;5.30;85.90;;;;;;4844257;29;20703;-85
2022/04/08 07:58:05;;;;;;;15.80;2.47;;;5.50;86.50;;;;;;4845144;29;20222;-85
2022/04/08 08:00:32;;;;;;;8.10;2.90;;;5.70;86.80;;;;;;4844828;29;20177;-84
2022/04/08 08:02:58;;;;;;;8.43;2.93;;;5.50;85.60;;;;;;4845205;29;20659;-86
2022/04/08 08:05:24;;;;;;;9.70;2.57;;;5.70;86.00;;;;;;4844730;29;20668;-84
2022/04/08 08:07:55;;;;;;;10.23;2.57;;;5.80;86.40;;;;;;4843099;29;20210;-85
2022/04/08 08:10:21;;;;;;;7.93;2.70;;;5.70;85.60;;;;;;4844062;29;20270;-85
2022/04/08 08:12:48;;;;;;;7.77;2.50;;;5.70;85.60;;;;;;4843763;29;20191;-85
2022/04/08 08:15:18;;;;;;;9.17;2.40;;;5.80;85.50;;;;;;4845053;29;20223;-85
2022/04/08 08:17:45;;;;;;;6.37;2.20;;;5.90;85.70;;;;;;4844936;29;20210;-85
2022/04/08 08:20:12;;;;;;;10.80;2.77;;;6.10;85.50;;;;;;4845565;29;20212;-87
2022/04/08 08:22:38;;;;;;;9.53;2.63;;;6.10;84.70;;;;;;4843935;29;20197;-86
2022/04/08 08:25:05;;;;;;;6.13;2.23;;;6.30;84.60;;;;;;4843902;29;20213;-86
2022/04/08 08:27:37;;;;;;;7.93;2.23;;;6.00;83.70;;;;;;4845187;29;20189;-87
2022/04/08 08:30:03;;;;;;;8.20;2.20;;;6.00;84.50;;;;;;4843544;29;20682;-87
2022/04/08 08:32:29;;;;;;;7.93;2.50;;;6.00;84.70;;;;;;4845118;29;20186;-86
2022/04/08 08:34:54;;;;;;;10.57;2.80;;;6.10;84.10;;;;;;4844054;29;20556;-86
2022/04/08 08:37:20;;;;;;;6.87;2.40;;;6.30;84.30;;;;;;4845619;29;20206;-86
2022/04/08 08:39:46;;;;;;;9.47;2.67;;;6.40;82.20;;;;;;4844069;29;20182;-86
2022/04/08 08:42:11;;;;;;;8.17;2.30;;;6.80;83.90;;;;;;4843934;29;20695;-89
2022/04/08 08:44:39;;;;;;;11.97;3.23;;;6.60;82.00;;;;;;4844052;29;20245;-87
2022/04/08 08:47:10;;;;;;;9.47;2.90;;;6.80;83.70;;;;;;4844824;29;20250;-87
2022/04/08 08:49:37;;;;;;;8.87;2.73;;;6.80;82.30;;;;;;4844034;29;20250;-87
2022/04/08 08:52:06;;;;;;;12.83;2.73;;;6.90;82.70;;;;;;4845112;29;20225;-86
2022/04/08 08:54:33;;;;;;;8.90;2.77;;;7.10;83.20;;;;;;4828403;29;20194;-86
2022/04/08 08:57:01;;;;;;;9.43;2.40;;;6.80;81.90;;;;;;4843624;29;20218;-87
2022/04/08 08:59:28;;;;;;;4.10;1.90;;;6.90;82.50;;;;;;4844594;29;20203;-87
2022/04/08 09:02:01;;;;;;;3.00;1.70;;;6.80;81.20;;;;;;4844379;29;20183;-87
2022/04/08 09:04:26;;;;;;;6.73;2.93;;;7.00;82.90;;;;;;4844561;29;20163;-86
2022/04/08 09:06:52;;;;;;;11.10;2.43;;;7.10;83.60;;;;;;4843392;29;20677;-87
2022/04/08 09:09:27;;;;;;;8.00;2.40;;;7.10;80.50;;;;;;4844648;29;20200;-87
2022/04/08 09:11:53;;;;;;;5.87;2.30;;;7.30;82.10;;;;;;4844038;29;20199;-87
2022/04/08 09:14:27;;;;;;;5.67;1.97;;;7.20;81.10;;;;;;4844355;29;20194;-87
2022/04/08 09:17:01;;;;;;;5.97;2.10;;;7.60;80.00;;;;;;4843729;29;20271;-87
2022/04/08 09:19:32;;;;;;;6.90;2.43;;;7.20;80.10;;;;;;4843298;29;20232;-87
2022/04/08 09:21:58;;;;;;;13.03;2.90;;;6.80;80.40;;;;;;4843731;29;20175;-87
2022/04/08 09:24:24;;;;;;;7.33;2.93;;;6.80;80.20;;;;;;4843979;29;20670;-89
2022/04/08 09:26:57;;;;;;;5.77;1.60;;;7.10;80.20;;;;;;4841954;29;20630;-90
2022/04/08 09:29:23;;;;;;;5.10;2.00;;;7.00;78.40;;;;;;4844659;29;20199;-86
2022/04/08 09:31:52;;;;;;;5.70;2.47;;;6.80;79.30;;;;;;4848127;29;20570;-86
2022/04/08 09:34:20;;;;;;;9.00;2.43;;;7.00;78.90;;;;;;4847285;29;20186;-87
2022/04/08 09:36:45;;;;;;;9.20;2.53;;;7.30;77.60;;;;;;4845621;29;20172;-87
2022/04/08 09:39:11;;;;;;;4.80;1.80;;;7.60;78.00;;;;;;4846159;29;20199;-88
2022/04/08 09:41:42;;;;;;;3.53;1.70;;;7.70;77.60;;;;;;4843915;29;20184;-86
2022/04/08 09:44:09;;;;;;;6.07;1.63;;;7.80;75.40;;;;;;4843692;29;20179;-87
2022/04/08 09:46:36;;;;;;;9.60;1.70;;;7.80;73.70;;;;;;4845015;29;20593;-87
2022/04/08 09:49:04;;;;;;;7.07;1.83;;;7.60;73.10;;;;;;4843816;29;20660;-87
2022/04/08 09:51:37;;;;;;;3.40;1.60;;;7.80;75.60;;;;;;4843663;29;20179;-85
2022/04/08 09:54:06;;;;;;;4.53;1.40;;;7.90;73.50;;;;;;4843231;29;20179;-86
2022/04/08 09:56:34;;;;;;;7.40;1.80;;;8.30;76.40;;;;;;4843669;29;20599;-87
2022/04/08 09:59:14;;;;;;;21.53;1.83;;;7.60;74.80;;;;;;4842700;29;20211;-87
2022/04/08 10:01:44;;;;;;;6.57;2.00;;;7.20;73.90;;;;;;4842671;29;20259;-87
2022/04/08 10:04:10;;;;;;;6.83;1.93;;;7.20;75.40;;;;;;4845215;29;20611;-87
2022/04/08 10:06:37;;;;;;;13.40;2.47;;;7.90;76.40;;;;;;4845597;29;20180;-88
2022/04/08 10:09:04;;;;;;;8.67;2.10;;;7.70;75.30;;;;;;4843517;29;20607;-87
2022/04/08 10:11:50;;;;;;;8.63;2.33;;;7.90;75.10;;;;;;4843034;29;20179;-86
2022/04/08 10:14:42;;;;;;;4.37;1.30;;;8.00;74.90;;;;;;4843279;29;20176;-87
2022/04/08 10:17:18;;;;;;;3.67;1.70;;;7.80;71.30;;;;;;4844578;29;20709;-90
2022/04/08 10:19:44;;;;;;;11.70;1.70;;;8.40;70.40;;;;;;4841480;29;20631;-89
2022/04/08 10:22:18;;;;;;;4.20;1.60;;;8.50;68.90;;;;;;4842418;29;20210;-89
2022/04/08 10:24:57;;;;;;;7.30;2.00;;;8.20;70.10;;;;;;4841055;29;20184;-88
2022/04/08 10:27:38;;;;;;;8.67;2.07;;;8.50;68.40;;;;;;4840969;29;20183;-89
2022/04/08 10:30:15;;;;;;;6.53;2.30;;;8.30;68.80;;;;;;4842299;29;20191;-88
2022/04/08 10:32:43;;;;;;;6.20;1.97;;;8.50;67.60;;;;;;4841147;29;20176;-88
2022/04/08 10:35:19;;;;;;;6.13;1.93;;;8.70;66.90;;;;;;4843741;29;20270;-88
2022/04/08 10:37:54;;;;;;;8.73;2.50;;;9.00;68.80;;;;;;4844145;29;20222;-89
2022/04/08 10:40:20;;;;;;;6.07;1.90;;;8.60;65.60;;;;;;4844309;29;20223;-88
2022/04/08 10:43:16;;;;;;;3.57;1.60;;;8.40;66.30;;;;;;4844162;29;20236;-88
2022/04/08 10:45:53;;;;;;;5.63;1.90;;;8.60;71.30;;;;;;4828840;29;20681;-88
2022/04/08 10:48:19;;;;;;;10.00;2.00;;;9.00;69.50;;;;;;4845161;29;20214;-88
2022/04/08 10:50:44;;;;;;;9.70;2.30;;;9.00;70.30;;;;;;4828672;29;20719;-89
2022/04/08 10:53:18;;;;;;;6.97;1.70;;;9.20;70.00;;;;;;4844019;29;20191;-88
2022/04/08 10:55:53;;;;;;;2.73;1.67;;;9.00;66.60;;;;;;4845353;29;20171;-89
2022/04/08 10:58:59;;;;;;;8.23;2.00;;;8.90;71.40;;;;;;4844658;29;20247;-87
2022/04/08 11:01:25;;;;;;;5.87;1.90;;;9.00;70.10;;;;;;4825687;29;20192;-86
2022/04/08 11:04:00;;;;;;;8.40;1.93;;;8.70;63.00;;;;;;4841836;29;20196;-86
2022/04/08 11:06:27;;;;;;;1.83;1.40;;;8.80;65.50;;;;;;4844269;29;20338;-86
2022/04/08 11:08:53;;;;;;;3.83;1.87;;;8.70;64.70;;;;;;4844876;29;20212;-87
2022/04/08 11:11:34;;;;;;;5.10;1.97;;;9.30;65.90;;;;;;4843904;29;20247;-86
2022/04/08 11:14:02;;;;;;;5.63;1.70;;;9.50;66.90;;;;;;4843795;29;20266;-86
2022/04/08 11:16:29;;;;;;;5.73;2.20;;;9.00;64.70;;;;;;4845242;29;20183;-86
2022/04/08 11:18:55;;;;;;;5.03;1.60;;;9.40;64.10;;;;;;4843855;29;20220;-86
2022/04/08 11:21:23;;;;;;;6.00;1.90;;;9.80;64.90;;;;;;4845056;29;20278;-86
2022/04/08 11:24:05;;;;;;;5.80;1.67;;;9.50;63.50;;;;;;4844892;29;20182;-86
2022/04/08 11:26:42;;;;;;;4.87;1.97;;;10.10;63.10;;;;;;4843687;29;20190;-86
2022/04/08 11:29:19;;;;;;;4.37;1.77;;;9.80;60.40;;;;;;4843626;29;20297;-86
2022/04/08 11:31:47;;;;;;;6.30;1.77;;;9.90;62.50;;;;;;4845119;29;20651;-87
2022/04/08 11:34:13;;;;;;;4.63;1.90;;;10.20;61.20;;;;;;4843186;29;20243;-88
2022/04/08 11:36:40;;;;;;;4.97;1.97;;;9.60;60.70;;;;;;4844444;29;20240;-88
2022/04/08 11:39:06;;;;;;;7.87;1.80;;;9.60;64.30;;;;;;4843075;29;20230;-87
2022/04/08 11:41:33;;;;;;;8.10;2.23;;;9.90;63.60;;;;;;4844037;29;20187;-88
2022/04/08 11:44:00;;;;;;;6.23;1.37;;;10.20;63.40;;;;;;4843024;29;20183;-88
2022/04/08 11:46:26;;;;;;;8.83;2.33;;;10.50;62.40;;;;;;4841979;29;20722;-87
2022/04/08 11:48:52;;;;;;;4.47;2.10;;;10.20;63.50;;;;;;4842732;29;20318;-87
2022/04/08 11:51:21;;;;;;;3.40;1.63;;;9.90;62.30;;;;;;4844119;29;20248;-87
2022/04/08 11:53:49;;;;;;;9.07;1.47;;;9.30;65.10;;;;;;4843018;29;20191;-87
2022/04/08 11:56:26;;;;;;;8.27;1.70;;;9.10;64.70;;;;;;4844435;29;20545;-87
2022/04/08 11:58:58;;;;;;;8.00;1.77;;;9.20;65.10;;;;;;4843988;29;20721;-87
2022/04/08 12:01:24;;;;;;;9.97;1.93;;;8.60;65.90;;;;;;4844081;29;20175;-87
2022/04/08 12:03:52;;;;;;;7.60;2.03;;;8.20;68.20;;;;;;4842870;29;20185;-87
2022/04/08 12:06:18;;;;;;;4.03;1.70;;;8.30;69.20;;;;;;4842924;29;20646;-87
2022/04/08 12:08:48;;;;;;;4.90;1.90;;;8.20;70.90;;;;;;4842605;29;20650;-87
2022/04/08 12:11:14;;;;;;;5.30;1.70;;;8.20;72.90;;;;;;4842791;29;20202;-87
2022/04/08 12:13:42;;;;;;;6.53;2.13;;;8.50;75.60;;;;;;4842701;29;20188;-87
2022/04/08 12:16:12;;;;;;;5.77;1.90;;;8.40;75.20;;;;;;4842548;29;20190;-87
2022/04/08 12:18:48;;;;;;;6.43;2.00;;;8.80;76.10;;;;;;4843530;29;20219;-87
2022/04/08 12:21:19;;;;;;;4.27;1.30;;;9.00;75.10;;;;;;4842423;29;20190;-87
2022/04/08 12:23:45;;;;;;;8.20;1.73;;;9.00;74.80;;;;;;4842412;29;20262;-88
2022/04/08 12:26:11;;;;;;;7.03;1.67;;;9.30;76.50;;;;;;4842389;29;20219;-87
2022/04/08 12:28:37;;;;;;;5.30;1.60;;;9.30;71.70;;;;;;4842849;29;20720;-87
2022/04/08 12:31:12;;;;;;;7.23;1.90;;;9.60;71.30;;;;;;4827298;29;20207;-87
2022/04/08 12:33:38;;;;;;;5.13;1.67;;;9.60;69.90;;;;;;4827114;29;20182;-87
2022/04/08 12:36:09;;;;;;;9.37;2.13;;;9.80;71.60;;;;;;4842133;29;20638;-87
2022/04/08 12:38:38;;;;;;;3.87;1.67;;;9.70;69.50;;;;;;4842115;29;20247;-88
2022/04/08 12:41:04;;;;;;;8.00;1.77;;;9.30;69.80;;;;;;4842177;29;20563;-86
2022/04/08 12:43:31;;;;;;;2.97;1.53;;;9.20;70.30;;;;;;4842196;29;20205;-88
2022/04/08 12:45:56;;;;;;;4.37;1.70;;;9.20;68.50;;;;;;4842113;29;20187;-87
2022/04/08 12:48:22;;;;;;;3.40;1.40;;;9.50;69.00;;;;;;4842236;29;20218;-88
2022/04/08 12:50:47;;;;;;;3.63;1.40;;;9.80;64.10;;;;;;4843144;29;20180;-88